Forum Topics Posts Last post

Polls

Decisions, decisions.
1908 53515 2025-09-08 19:21:27
by SuperJail Warden

Everything Else

Topic Replies Views Last post
29 1626 2008-12-05 09:19:42 by -CARNIFEX-[LOC]
Need info on man and ww2 island by west-phoenix-az
6 471 2008-12-05 08:51:55 by west-phoenix-az
Bypassing Internet Filters by FrankieSpankie3388
13 804 2008-12-05 06:50:05 by Freezer7Pro
54 3745 2008-12-04 23:10:54 by Flecco
4 337 2008-12-04 20:56:52 by Roc18
Are pencils electrically conductive? by Freezer7Pro  [ 1 2 ]
43 6592 2008-12-04 20:15:38 by CrazeD
Poll: CoD4 or BF2
Which is better. by phishman420  [ 1 2 3 4 ]
91 9885 2008-12-04 18:00:47 by oug
D'Ya know what i mean? by FatherTed  [ 1 2 3 ]
52 4702 2008-12-04 17:35:22 by Poseidon
Britain's biggest Bull by blademaster
24 2462 2008-12-04 17:24:52 by .Sup
15 866 2008-12-04 16:33:38 by .Sup
can anyone tell me what this is? by destruktion_6143
11 894 2008-12-04 13:15:41 by Roger Lesboules
101 19267 2008-12-04 12:41:54 by hoplite :O
Steam for Movies by Flaming_Maniac
20 1315 2008-12-04 06:09:18 by max
This topic is closed
8 854 2008-12-03 23:36:46 by DonFck
My epic war story. by Choclot
11 1736 2008-12-03 22:40:15 by Superior Mind
Dave's Insanity Hot Sauce by Kaosdad  [ 1 2 ]
49 5208 2008-12-03 21:25:38 by TimmmmaaaaH
Help with my poem. by Whiplash
13 1347 2008-12-03 18:27:41 by Hurricane2k9
BF2s Stats by FatherTed
23 1848 2008-12-03 11:17:50 by TSI
Spooks by david363
5 591 2008-12-03 09:16:11 by phishman420
This topic is closed
I am so tempted by simmy.uk  [ 1 2 ]
39 4019 2008-12-03 06:09:07 by Flaming_Maniac
integration help by Ender2309  [ 1 2 ]
32 3814 2008-12-03 03:46:42 by mcminty
How I Met Your Mother fans by ghettoperson
9 995 2008-12-03 02:44:46 by Cyrax-Sektor
32 2842 2008-12-03 01:53:25 by 1927
Poll: Getting Crunk.
What is it? by Stimey  [ 1 2 ]
41 5514 2008-12-03 00:03:15 by Roger Lesboules
90 8627 2008-12-02 21:01:04 by Bull3t
6 450 2008-12-02 16:58:22 by War Man
Scarlet Takes a Tumble by phishman420  [ 1 2 ]
30 2543 2008-12-02 15:52:51 by GuliblGuy
Clubland 2 Live by hoplite :O
18 1134 2008-12-02 15:01:27 by aerodynamic
78 6256 2008-12-02 11:02:00 by Kmar
24 4668 2008-12-02 10:26:59 by Commie Killer

Board footer

Privacy Policy - © 2026 Jeff Minard